Time;durP1;ratioP1;P1;durP2;ratioP2;P2;SDS_P1;SDS_P2;PMS_P1;PMS_P2;Temp;Humidity;BMP_temperature;BMP_pressure;BME280_temperature;BME280_humidity;BME280_pressure;Samples;Min_cycle;Max_cycle;Signal;HPM_P1;HPM_P2
2022/10/19 00:03:00;;;;;;;4.55;1.58;;;14.50;99.90;;;;;;10438361;28;20025;-59
2022/10/19 00:08:01;;;;;;;1.85;1.20;;;14.50;99.90;;;;;;10439168;28;20025;-60
2022/10/19 00:13:02;;;;;;;1.67;1.20;;;14.50;99.90;;;;;;10439279;28;20045;-59
2022/10/19 00:18:03;;;;;;;4.88;1.40;;;14.50;99.90;;;;;;10435424;28;20537;-60
2022/10/19 00:23:03;;;;;;;4.55;1.45;;;14.40;99.90;;;;;;10438554;28;20037;-60
2022/10/19 00:28:04;;;;;;;2.30;1.30;;;14.50;99.90;;;;;;10435953;28;20021;-60
2022/10/19 00:33:05;;;;;;;1.75;1.17;;;14.40;99.90;;;;;;10434740;28;20099;-60
2022/10/19 00:38:06;;;;;;;2.10;1.30;;;14.40;99.90;;;;;;10437463;28;20429;-60
2022/10/19 00:43:21;;;;;;;1.98;1.27;;;14.40;99.90;;;;;;10435621;28;20064;-61
2022/10/19 00:48:26;;;;;;;1.95;1.23;;;14.40;99.90;;;;;;10435858;28;20025;-60
2022/10/19 00:53:29;;;;;;;4.20;1.33;;;14.40;99.90;;;;;;10438140;28;20643;-60
2022/10/19 00:58:30;;;;;;;2.08;1.40;;;14.30;99.90;;;;;;10437114;28;20120;-60
2022/10/19 01:03:32;;;;;;;2.45;1.00;;;14.30;99.90;;;;;;10440513;28;20393;-60
2022/10/19 01:08:33;;;;;;;2.47;1.25;;;14.30;99.90;;;;;;10444120;28;20111;-60
2022/10/19 01:13:48;;;;;;;1.48;0.98;;;14.30;99.90;;;;;;10445865;28;20043;-60
2022/10/19 01:19:21;;;;;;;4.97;0.95;;;14.20;99.90;;;;;;10441973;28;20021;-60
2022/10/19 01:24:35;;;;;;;1.25;0.90;;;14.20;99.90;;;;;;10422860;28;20392;-60
2022/10/19 01:30:15;;;;;;;2.65;1.02;;;14.20;99.90;;;;;;10446037;28;20064;-59
2022/10/19 01:35:32;;;;;;;2.78;1.02;;;14.20;99.90;;;;;;10445413;28;20040;-59
2022/10/19 01:41:00;;;;;;;2.67;0.80;;;14.20;99.90;;;;;;10445282;28;20049;-60
2022/10/19 01:46:10;;;;;;;2.90;0.95;;;14.10;99.90;;;;;;10402174;28;20124;-61
2022/10/19 01:51:17;;;;;;;4.55;1.13;;;14.10;99.90;;;;;;10442271;28;20033;-63
2022/10/19 01:56:22;;;;;;;3.45;1.90;;;14.10;99.90;;;;;;10444390;28;20396;-59
2022/10/19 02:01:25;;;;;;;2.28;0.80;;;14.10;99.90;;;;;;10444719;28;20127;-59
2022/10/19 02:06:27;;;;;;;1.55;0.88;;;14.10;99.90;;;;;;10441862;28;20028;-60
2022/10/19 02:11:28;;;;;;;2.42;0.82;;;14.10;99.90;;;;;;10443000;28;20035;-59
2022/10/19 02:16:34;;;;;;;1.92;0.90;;;14.00;99.90;;;;;;10442946;28;20033;-60
2022/10/19 02:21:35;;;;;;;2.00;0.70;;;14.00;99.90;;;;;;10445127;28;20020;-59
2022/10/19 02:26:36;;;;;;;2.42;0.70;;;14.00;99.90;;;;;;10443275;28;20044;-60
2022/10/19 02:31:37;;;;;;;3.00;1.00;;;14.10;99.90;;;;;;10443432;28;20022;-60
2022/10/19 02:36:38;;;;;;;1.38;0.85;;;14.00;99.90;;;;;;10442069;28;20071;-60
2022/10/19 02:41:48;;;;;;;2.03;0.75;;;14.00;99.90;;;;;;10442653;28;20045;-61
2022/10/19 02:47:03;;;;;;;2.50;0.88;;;14.00;99.90;;;;;;10442231;28;20108;-59
2022/10/19 02:52:08;;;;;;;2.17;0.85;;;13.90;99.90;;;;;;10442558;28;20021;-60
2022/10/19 02:57:20;;;;;;;2.92;1.38;;;13.90;99.90;;;;;;10442029;28;20044;-60
2022/10/19 03:02:21;;;;;;;2.17;0.73;;;13.90;99.90;;;;;;10438864;28;20087;-60
2022/10/19 03:07:22;;;;;;;2.08;0.90;;;13.90;99.90;;;;;;10440717;28;20079;-60
2022/10/19 03:12:23;;;;;;;3.70;0.80;;;13.90;99.90;;;;;;10441934;28;20033;-60
2022/10/19 03:17:24;;;;;;;1.35;0.90;;;13.90;99.90;;;;;;10438982;28;20451;-59
2022/10/19 03:22:24;;;;;;;1.30;0.85;;;13.90;99.90;;;;;;10439415;28;20025;-60
2022/10/19 03:27:25;;;;;;;1.40;0.82;;;13.90;99.90;;;;;;10440877;28;20041;-60
2022/10/19 03:32:26;;;;;;;1.52;0.85;;;13.80;99.90;;;;;;10430350;28;20033;-62
2022/10/19 03:37:26;;;;;;;1.80;0.80;;;13.80;99.90;;;;;;10439775;28;20139;-64
2022/10/19 03:42:27;;;;;;;1.33;0.73;;;13.80;99.90;;;;;;10436625;28;20440;-59
2022/10/19 03:47:28;;;;;;;2.28;0.77;;;13.80;99.90;;;;;;10440295;28;20029;-59
2022/10/19 03:52:28;;;;;;;5.28;1.20;;;13.80;99.90;;;;;;10438341;28;20116;-60
2022/10/19 03:57:29;;;;;;;0.80;0.60;;;13.80;99.90;;;;;;10440594;28;20067;-59
2022/10/19 04:02:30;;;;;;;2.50;1.15;;;13.80;99.90;;;;;;10440007;28;20427;-60
2022/10/19 04:07:30;;;;;;;2.00;0.57;;;13.80;99.90;;;;;;10440073;28;20028;-60
2022/10/19 04:12:32;;;;;;;1.38;0.77;;;13.80;99.90;;;;;;10439835;28;20023;-59
2022/10/19 04:17:33;;;;;;;3.78;0.88;;;13.80;99.90;;;;;;10438034;28;20040;-60
2022/10/19 04:22:33;;;;;;;1.67;0.73;;;13.80;99.90;;;;;;10437964;28;20025;-59
2022/10/19 04:27:34;;;;;;;2.47;0.90;;;13.80;99.90;;;;;;10438372;28;20025;-60
2022/10/19 04:32:35;;;;;;;2.92;1.00;;;13.80;99.90;;;;;;10420575;28;20021;-59
2022/10/19 04:37:35;;;;;;;1.98;0.75;;;13.70;99.90;;;;;;10437350;28;20037;-60
2022/10/19 04:42:36;;;;;;;2.88;1.15;;;13.70;99.90;;;;;;10438176;28;20049;-61
2022/10/19 04:47:37;;;;;;;0.80;0.63;;;13.70;99.90;;;;;;10436499;28;20024;-60
2022/10/19 04:52:38;;;;;;;3.95;0.70;;;13.70;99.90;;;;;;10436389;28;20026;-59
2022/10/19 04:57:38;;;;;;;1.00;0.75;;;13.70;99.90;;;;;;10433618;28;20049;-60
2022/10/19 05:02:46;;;;;;;1.73;0.70;;;13.70;99.90;;;;;;10430964;28;20312;-59
2022/10/19 05:07:47;;;;;;;2.22;1.10;;;13.70;99.90;;;;;;10433381;28;20497;-59
2022/10/19 05:12:48;;;;;;;4.13;0.82;;;13.70;99.90;;;;;;10433733;28;20079;-59
2022/10/19 05:17:49;;;;;;;2.50;1.00;;;13.70;99.90;;;;;;10435042;28;20582;-60
2022/10/19 05:22:50;;;;;;;1.98;0.60;;;13.60;99.90;;;;;;10420332;28;20044;-60
2022/10/19 05:27:52;;;;;;;1.70;0.75;;;13.60;99.90;;;;;;10438361;28;20101;-60
2022/10/19 05:32:53;;;;;;;2.17;0.63;;;13.60;99.90;;;;;;10433432;28;20099;-59
2022/10/19 05:37:54;;;;;;;2.22;1.13;;;13.60;99.90;;;;;;10434894;28;20036;-59
2022/10/19 05:42:55;;;;;;;3.65;0.70;;;13.60;99.90;;;;;;10434596;28;20141;-59
2022/10/19 05:47:55;;;;;;;1.55;0.98;;;13.60;99.90;;;;;;10433266;28;20071;-59
2022/10/19 05:52:56;;;;;;;2.88;0.63;;;13.60;99.90;;;;;;10445282;28;20082;-59
2022/10/19 05:57:57;;;;;;;1.90;0.63;;;13.60;99.90;;;;;;10441521;28;20025;-62
2022/10/19 06:02:57;;;;;;;1.75;0.60;;;13.60;99.80;;;;;;10431152;28;20370;-64
2022/10/19 06:07:58;;;;;;;2.03;0.60;;;13.60;99.80;;;;;;10442547;28;20029;-59
2022/10/19 06:12:59;;;;;;;1.65;0.80;;;13.60;99.80;;;;;;10438864;28;20113;-59
2022/10/19 06:17:59;;;;;;;3.13;0.68;;;13.60;99.80;;;;;;10442764;28;20432;-59
2022/10/19 06:23:00;;;;;;;1.35;0.73;;;13.60;99.80;;;;;;10441402;28;20021;-59
2022/10/19 06:28:02;;;;;;;4.00;0.80;;;13.60;99.80;;;;;;10443914;28;20029;-59
2022/10/19 06:33:03;;;;;;;3.63;0.80;;;13.60;99.80;;;;;;10444175;28;20203;-59
2022/10/19 06:38:06;;;;;;;3.33;0.60;;;13.60;99.80;;;;;;10428089;28;20033;-60
2022/10/19 06:43:07;;;;;;;2.35;0.70;;;13.60;99.80;;;;;;10370257;28;20037;-59
2022/10/19 06:48:08;;;;;;;0.63;0.43;;;13.60;99.80;;;;;;10369826;28;20036;-60
2022/10/19 06:53:10;;;;;;;1.08;0.65;;;13.60;99.80;;;;;;10368401;28;20365;-60
2022/10/19 06:58:11;;;;;;;1.40;0.70;;;13.60;99.80;;;;;;10373069;28;20477;-73
2022/10/19 07:03:12;;;;;;;2.70;0.80;;;13.60;99.70;;;;;;10374144;28;20537;-60
2022/10/19 07:08:12;;;;;;;3.88;0.60;;;13.60;99.70;;;;;;10379453;28;20025;-60
2022/10/19 07:13:13;;;;;;;1.23;0.52;;;13.60;99.70;;;;;;10372885;28;20373;-60
2022/10/19 07:18:14;;;;;;;1.42;0.75;;;13.60;99.70;;;;;;10367685;28;20033;-60
2022/10/19 07:23:15;;;;;;;2.58;0.60;;;13.60;99.70;;;;;;10372467;28;20040;-59
2022/10/19 07:28:16;;;;;;;2.53;0.90;;;13.60;99.70;;;;;;10366053;28;20219;-61
2022/10/19 07:33:17;;;;;;;2.35;0.80;;;13.60;99.60;;;;;;10366231;28;20481;-61
2022/10/19 07:38:17;;;;;;;6.50;1.10;;;13.60;99.70;;;;;;10377145;28;20114;-62
2022/10/19 07:43:18;;;;;;;2.78;0.88;;;13.60;99.60;;;;;;10363308;28;20167;-60
2022/10/19 07:48:19;;;;;;;2.63;0.70;;;13.60;99.60;;;;;;10368033;28;20033;-61
2022/10/19 07:53:20;;;;;;;3.20;0.77;;;13.70;99.60;;;;;;10360660;28;20163;-61
2022/10/19 07:58:21;;;;;;;4.72;0.80;;;13.70;99.50;;;;;;10359026;28;20672;-61
2022/10/19 08:03:21;;;;;;;1.80;0.95;;;13.70;99.50;;;;;;10356849;28;20493;-62
2022/10/19 08:08:22;;;;;;;2.08;0.85;;;13.80;99.50;;;;;;10369964;28;20436;-62
2022/10/19 08:13:23;;;;;;;1.95;0.85;;;13.80;99.50;;;;;;10357225;28;20458;-62
2022/10/19 08:18:24;;;;;;;6.05;0.98;;;13.80;99.40;;;;;;10357274;28;20029;-60
2022/10/19 08:23:26;;;;;;;4.32;1.05;;;13.90;99.40;;;;;;10356794;28;20067;-60
2022/10/19 08:28:27;;;;;;;2.80;0.90;;;13.90;99.40;;;;;;10361525;28;20029;-62
2022/10/19 08:33:27;;;;;;;2.03;0.70;;;13.90;99.30;;;;;;10365181;28;20912;-67
2022/10/19 08:38:28;;;;;;;6.28;1.20;;;14.00;99.20;;;;;;10358523;28;20056;-60
2022/10/19 08:43:45;;;;;;;3.92;0.77;;;14.10;99.10;;;;;;10366089;28;20661;-62
2022/10/19 08:48:45;;;;;;;2.00;0.60;;;14.20;99.00;;;;;;10367143;28;20025;-61
2022/10/19 08:53:52;;;;;;;3.58;0.70;;;14.20;99.00;;;;;;10368770;28;20041;-61
2022/10/19 08:59:33;;;;;;;2.15;0.52;;;14.30;98.90;;;;;;10369303;28;20422;-61
2022/10/19 09:04:37;;;;;;;3.50;0.80;;;14.40;98.80;;;;;;10351141;28;20685;-61
2022/10/19 09:09:42;;;;;;;16.92;2.35;;;14.30;98.80;;;;;;10375810;28;20032;-62
2022/10/19 09:15:02;;;;;;;7.25;1.10;;;14.00;97.80;;;;;;10366940;28;20048;-63
2022/10/19 09:20:21;;;;;;;6.70;1.20;;;13.50;97.80;;;;;;10365370;28;20036;-62
2022/10/19 09:25:24;;;;;;;3.95;1.10;;;13.10;97.70;;;;;;10369855;28;20901;-62
2022/10/19 09:30:26;;;;;;;5.78;0.90;;;13.00;98.00;;;;;;10370450;28;20487;-70
2022/10/19 09:35:31;;;;;;;6.85;1.98;;;12.90;98.10;;;;;;10370878;28;20069;-63
2022/10/19 09:40:33;;;;;;;7.30;0.88;;;13.00;97.80;;;;;;10384043;28;20037;-62
2022/10/19 09:45:52;;;;;;;2.28;0.77;;;13.00;97.80;;;;;;10370213;28;20024;-62
2022/10/19 09:51:02;;;;;;;;;;;13.00;97.00;;;;;;10372629;28;20037;-63
2022/10/19 09:56:05;;;;;;;6.25;1.77;;;12.90;97.00;;;;;;10371886;28;19937;-63
2022/10/19 10:01:26;;;;;;;7.97;1.00;;;13.00;97.20;;;;;;10372165;28;20064;-62
2022/10/19 10:06:28;;;;;;;4.90;1.00;;;13.00;96.90;;;;;;10347923;28;20024;-63
2022/10/19 10:11:38;;;;;;;9.18;0.80;;;12.90;96.90;;;;;;10378687;28;20486;-61
2022/10/19 10:16:39;;;;;;;3.53;0.80;;;13.00;96.50;;;;;;10353703;28;20037;-61
2022/10/19 10:21:53;;;;;;;5.43;0.90;;;13.10;96.50;;;;;;10370318;28;20044;-62
2022/10/19 10:26:57;;;;;;;5.00;1.10;;;13.30;96.50;;;;;;10370199;28;20123;-62
2022/10/19 10:32:21;;;;;;;6.88;0.93;;;13.40;96.40;;;;;;10369868;28;20029;-62
2022/10/19 10:37:28;;;;;;;5.80;0.98;;;13.30;96.20;;;;;;10377746;28;20497;-61
2022/10/19 10:42:44;;;;;;;9.00;1.27;;;13.20;96.30;;;;;;10369485;28;20088;-63
2022/10/19 10:47:47;;;;;;;5.55;1.10;;;13.00;96.30;;;;;;10368956;28;20033;-63
2022/10/19 10:53:03;;;;;;;7.70;1.10;;;13.00;96.50;;;;;;10365513;28;20029;-63
2022/10/19 10:58:30;;;;;;;8.55;1.50;;;13.10;96.50;;;;;;10361831;28;20322;-61
2022/10/19 11:03:32;;;;;;;4.28;1.10;;;13.10;96.10;;;;;;10364176;28;20036;-62
2022/10/19 11:08:47;;;;;;;5.03;1.40;;;13.20;96.40;;;;;;10375083;28;20029;-63
2022/10/19 11:13:55;;;;;;;3.67;1.30;;;13.20;96.10;;;;;;10358854;28;20037;-61
2022/10/19 11:19:13;;;;;;;7.43;1.00;;;13.20;96.10;;;;;;10355375;28;20781;-63
2022/10/19 11:24:36;;;;;;;2.30;0.88;;;13.50;96.00;;;;;;10359140;28;20036;-64
2022/10/19 11:29:58;;;;;;;3.45;0.98;;;13.40;96.00;;;;;;10358938;28;20041;-64
2022/10/19 11:35:20;;;;;;;10.55;1.48;;;13.60;96.10;;;;;;10363722;28;20033;-61
2022/10/19 11:40:34;;;;;;;4.82;1.38;;;13.60;95.70;;;;;;10372941;28;20342;-62
2022/10/19 11:45:46;;;;;;;10.15;1.10;;;13.70;95.60;;;;;;10368354;28;20031;-62
2022/10/19 11:50:54;;;;;;;5.50;0.98;;;13.80;95.50;;;;;;10367387;28;20029;-62
2022/10/19 11:56:18;;;;;;;8.35;1.48;;;13.80;95.40;;;;;;10367424;28;20488;-61
2022/10/19 12:01:43;;;;;;;6.13;1.25;;;13.80;95.50;;;;;;10364507;28;20499;-64
2022/10/19 12:06:56;;;;;;;8.75;1.35;;;13.80;95.70;;;;;;10369795;28;20140;-63
2022/10/19 12:12:19;;;;;;;8.32;1.45;;;13.90;95.40;;;;;;10368597;28;21081;-62
2022/10/19 12:17:26;;;;;;;5.10;1.65;;;13.80;95.30;;;;;;10365046;28;20679;-61
2022/10/19 12:22:33;;;;;;;5.70;1.55;;;13.70;95.50;;;;;;10366621;28;20446;-63
2022/10/19 12:27:39;;;;;;;6.80;1.45;;;13.60;95.60;;;;;;10364652;28;20865;-66
2022/10/19 12:33:02;;;;;;;4.78;1.55;;;13.60;95.80;;;;;;10365387;28;20512;-65
2022/10/19 12:38:29;;;;;;;4.53;2.42;;;13.70;95.70;;;;;;10358145;28;20413;-63
2022/10/19 12:43:43;;;;;;;6.18;2.40;;;13.80;95.70;;;;;;10361559;28;20575;-63
2022/10/19 12:48:44;;;;;;;7.80;2.30;;;13.80;95.80;;;;;;10367827;28;20032;-63
2022/10/19 12:53:47;;;;;;;7.07;2.42;;;13.80;95.80;;;;;;10363308;28;20557;-62
2022/10/19 12:58:54;;;;;;;5.88;2.15;;;13.80;95.80;;;;;;10360253;28;20064;-62
2022/10/19 13:04:16;;;;;;;6.78;2.45;;;13.90;95.80;;;;;;10366333;28;20028;-64
2022/10/19 13:09:30;;;;;;;5.72;1.50;;;13.80;95.50;;;;;;10369185;28;20287;-64
2022/10/19 13:14:54;;;;;;;5.85;1.90;;;13.80;95.40;;;;;;10364931;28;20296;-63
2022/10/19 13:20:15;;;;;;;7.95;2.28;;;13.80;95.50;;;;;;10367198;28;20500;-63
2022/10/19 13:25:16;;;;;;;6.07;2.08;;;13.90;95.10;;;;;;10362774;28;20958;-62
2022/10/19 13:30:38;;;;;;;14.73;2.45;;;13.80;95.50;;;;;;10365104;28;20036;-63
2022/10/19 13:35:40;;;;;;;3.85;1.70;;;13.90;94.90;;;;;;10362195;28;20880;-69
2022/10/19 13:40:55;;;;;;;4.07;1.70;;;13.90;95.30;;;;;;10360283;28;20547;-63
2022/10/19 13:46:20;;;;;;;4.78;2.00;;;14.20;94.90;;;;;;10367557;28;20032;-64
2022/10/19 13:51:33;;;;;;;8.65;2.03;;;14.80;94.80;;;;;;10362920;28;20416;-63
2022/10/19 13:57:05;;;;;;;7.07;2.45;;;14.50;94.50;;;;;;10361651;28;20091;-65
2022/10/19 14:02:54;;;;;;;10.30;3.70;;;14.50;94.50;;;;;;10355965;28;20148;-64
2022/10/19 14:07:55;;;;;;;4.80;2.40;;;14.50;94.70;;;;;;10358529;28;20029;-65
2022/10/19 14:12:57;;;;;;;8.32;2.80;;;14.40;94.80;;;;;;10369128;28;20025;-65
2022/10/19 14:17:58;;;;;;;10.15;4.25;;;14.30;94.90;;;;;;10363158;28;20040;-64
2022/10/19 14:23:22;;;;;;;7.97;3.83;;;14.20;94.90;;;;;;10361441;28;20037;-65
2022/10/19 14:28:23;;;;;;;13.07;4.75;;;14.10;95.00;;;;;;10359966;28;20056;-65
2022/10/19 14:33:24;;;;;;;10.30;5.07;;;14.10;95.20;;;;;;10366958;28;20025;-67
2022/10/19 14:38:35;;;;;;;10.60;5.15;;;14.30;95.20;;;;;;10365652;28;20273;-64
2022/10/19 14:43:36;;;;;;;7.97;4.30;;;14.30;94.90;;;;;;10373107;28;20511;-62
2022/10/19 14:48:40;;;;;;;10.18;4.68;;;14.00;95.10;;;;;;10369415;28;20065;-63
2022/10/19 14:53:53;;;;;;;9.45;4.43;;;13.80;95.30;;;;;;10364511;28;20467;-63
2022/10/19 14:59:20;;;;;;;6.18;3.90;;;13.50;95.60;;;;;;10367412;28;20275;-64
2022/10/19 15:04:25;;;;;;;8.90;4.57;;;13.50;95.70;;;;;;10358096;28;20584;-69
2022/10/19 15:09:35;;;;;;;10.73;5.10;;;13.50;95.90;;;;;;10368163;28;20035;-63
2022/10/19 15:14:37;;;;;;;6.07;4.10;;;13.30;96.10;;;;;;10367383;28;20515;-64
2022/10/19 15:20:53;;;;;;;8.70;3.85;;;13.20;96.30;;;;;;10369604;28;20363;-62
2022/10/19 15:26:02;;;;;;;7.25;3.60;;;13.10;96.40;;;;;;10114419;29;20103;-66
2022/10/19 15:31:16;;;;;;;5.03;3.53;;;12.90;96.70;;;;;;10344063;28;20041;-63
2022/10/19 15:36:18;;;;;;;6.53;3.58;;;12.90;96.90;;;;;;10353468;28;20065;-63
2022/10/19 15:41:35;;;;;;;5.25;2.15;;;13.00;97.00;;;;;;10367918;28;20037;-63
2022/10/19 15:46:59;;;;;;;3.05;2.00;;;12.90;96.80;;;;;;10369103;28;20155;-64
2022/10/19 15:52:00;;;;;;;3.00;1.58;;;12.80;97.00;;;;;;10358622;28;20299;-63
2022/10/19 15:57:01;;;;;;;4.90;1.77;;;12.70;97.00;;;;;;10347958;28;20238;-63
2022/10/19 16:02:07;;;;;;;2.83;1.20;;;12.60;97.20;;;;;;10369814;28;20240;-63
2022/10/19 16:07:15;;;;;;;2.28;1.17;;;12.50;97.30;;;;;;10363236;28;20044;-64
2022/10/19 16:12:16;;;;;;;2.97;1.67;;;12.40;97.50;;;;;;10367496;28;20032;-64
2022/10/19 16:17:17;;;;;;;4.05;1.45;;;12.30;97.50;;;;;;10369092;28;20047;-63
2022/10/19 16:22:18;;;;;;;2.10;1.20;;;12.30;97.60;;;;;;10363702;28;20028;-66
2022/10/19 16:27:19;;;;;;;7.35;1.38;;;12.30;97.70;;;;;;10371565;28;20036;-67
2022/10/19 16:32:20;;;;;;;8.07;1.55;;;12.30;97.70;;;;;;10366693;28;20406;-66
2022/10/19 16:37:21;;;;;;;5.25;1.30;;;12.20;97.80;;;;;;10363464;28;20283;-66
2022/10/19 16:42:21;;;;;;;2.35;1.02;;;12.10;97.90;;;;;;10345823;28;20140;-65
2022/10/19 16:47:22;;;;;;;7.35;1.50;;;12.10;98.00;;;;;;10363158;28;20036;-64
2022/10/19 16:52:23;;;;;;;7.07;1.65;;;12.00;98.00;;;;;;10350863;28;20124;-66
2022/10/19 16:57:24;;;;;;;5.72;1.52;;;11.80;98.20;;;;;;10367290;28;20505;-64
2022/10/19 17:02:25;;;;;;;7.40;1.92;;;11.80;98.30;;;;;;10433486;28;20023;-67
2022/10/19 17:07:26;;;;;;;6.07;1.80;;;11.90;98.50;;;;;;10436071;28;20029;-66
2022/10/19 17:12:26;;;;;;;3.50;1.50;;;12.30;98.30;;;;;;10437561;28;20025;-65
2022/10/19 17:17:27;;;;;;;5.75;1.50;;;12.60;98.00;;;;;;10431580;28;20033;-67
2022/10/19 17:22:28;;;;;;;5.55;1.45;;;12.80;97.90;;;;;;10438889;28;20394;-66
2022/10/19 17:27:29;;;;;;;4.47;1.10;;;13.00;97.80;;;;;;10434429;28;20120;-67
2022/10/19 17:32:29;;;;;;;4.43;1.40;;;13.10;97.70;;;;;;10437134;28;20029;-69
2022/10/19 17:37:30;;;;;;;4.65;1.42;;;13.20;97.60;;;;;;10432320;28;21477;-65
2022/10/19 17:42:35;;;;;;;5.72;1.40;;;13.30;97.60;;;;;;10429461;28;20043;-65
2022/10/19 17:47:35;;;;;;;5.40;2.22;;;13.30;97.60;;;;;;10439273;28;20061;-65
2022/10/19 17:52:36;;;;;;;2.00;1.17;;;13.40;97.60;;;;;;10442931;28;20111;-65
2022/10/19 17:57:37;;;;;;;3.83;1.33;;;13.40;97.60;;;;;;10442524;28;20375;-64
2022/10/19 18:02:39;;;;;;;3.92;1.42;;;13.40;97.60;;;;;;10442654;28;20025;-64
2022/10/19 18:07:42;;;;;;;3.65;1.15;;;13.50;97.60;;;;;;10442096;28;20021;-64
2022/10/19 18:12:43;;;;;;;3.20;1.30;;;13.50;97.60;;;;;;10440430;28;20057;-65
2022/10/19 18:17:43;;;;;;;3.00;1.30;;;13.50;97.60;;;;;;10427789;28;20095;-65
2022/10/19 18:22:44;;;;;;;6.53;1.40;;;13.50;97.60;;;;;;10441816;28;20121;-65
2022/10/19 18:27:45;;;;;;;1.65;1.08;;;13.50;97.60;;;;;;10442109;28;21057;-66
2022/10/19 18:32:48;;;;;;;3.50;1.50;;;13.50;97.60;;;;;;10440678;28;20028;-67
2022/10/19 18:37:49;;;;;;;5.63;1.30;;;13.50;97.60;;;;;;10436667;28;20025;-65
2022/10/19 18:42:50;;;;;;;4.35;1.35;;;13.50;97.60;;;;;;10440585;28;20401;-64
2022/10/19 18:47:50;;;;;;;2.75;1.30;;;13.50;97.60;;;;;;10439336;28;20220;-65
2022/10/19 18:52:51;;;;;;;4.50;2.08;;;13.50;97.60;;;;;;10443724;28;20041;-65
2022/10/19 18:57:54;;;;;;;3.00;1.15;;;13.50;97.60;;;;;;10441310;28;20138;-67
2022/10/19 19:02:55;;;;;;;2.97;1.20;;;13.50;97.60;;;;;;10444461;28;20024;-64
2022/10/19 19:07:56;;;;;;;3.90;1.23;;;13.50;97.60;;;;;;10441337;28;20029;-64
2022/10/19 19:12:56;;;;;;;2.90;1.17;;;13.50;97.60;;;;;;10442651;28;20116;-64
2022/10/19 19:17:57;;;;;;;6.60;2.20;;;13.50;97.60;;;;;;10436304;28;20516;-64
2022/10/19 19:22:58;;;;;;;1.58;1.10;;;13.50;97.60;;;;;;10439398;28;20104;-63
2022/10/19 19:27:58;;;;;;;3.17;1.63;;;13.50;97.60;;;;;;10442271;28;20508;-64
2022/10/19 19:32:59;;;;;;;4.82;1.48;;;13.50;97.60;;;;;;10441164;28;20033;-64
2022/10/19 19:38:59;;;;;;;6.55;1.52;;;13.50;97.60;;;;;;10437921;28;20509;-64
2022/10/19 19:44:05;;;;;;;2.38;1.20;;;13.50;97.60;;;;;;10547076;23;20008;-64
2022/10/19 19:49:05;;;;;;;3.25;1.50;;;13.50;97.70;;;;;;10520272;28;20024;-64
2022/10/19 19:54:06;;;;;;;2.33;1.70;;;13.50;97.70;;;;;;10519156;28;20028;-64
2022/10/19 19:59:09;;;;;;;2.25;1.25;;;13.50;97.70;;;;;;10523735;28;20040;-64
2022/10/19 20:04:10;;;;;;;3.17;1.52;;;13.50;97.70;;;;;;10523312;28;20028;-64
2022/10/19 20:09:11;;;;;;;3.55;1.80;;;13.40;97.60;;;;;;10522763;28;20672;-64
2022/10/19 20:14:12;;;;;;;3.13;1.45;;;13.40;97.60;;;;;;10524963;28;20035;-66
2022/10/19 20:19:13;;;;;;;3.25;1.90;;;13.40;97.60;;;;;;10522161;28;20155;-63
2022/10/19 20:24:14;;;;;;;1.70;1.42;;;13.40;97.60;;;;;;10494445;28;20070;-64
2022/10/19 20:29:14;;;;;;;3.45;1.85;;;13.40;97.60;;;;;;10523771;28;20021;-64
2022/10/19 20:34:15;;;;;;;3.42;1.73;;;13.40;97.60;;;;;;10524713;28;20199;-64
2022/10/19 20:39:16;;;;;;;2.47;1.85;;;13.30;97.60;;;;;;10523070;28;20400;-64
2022/10/19 20:44:17;;;;;;;3.97;2.03;;;13.30;97.60;;;;;;10518023;28;20048;-64
2022/10/19 20:49:17;;;;;;;6.00;1.88;;;13.30;97.60;;;;;;10526502;28;20035;-64
2022/10/19 20:54:18;;;;;;;2.22;1.60;;;13.30;97.60;;;;;;10529200;28;20055;-64
2022/10/19 20:59:21;;;;;;;5.82;1.52;;;13.30;97.60;;;;;;10530585;28;20036;-64
2022/10/19 21:04:24;;;;;;;6.53;2.38;;;13.30;97.70;;;;;;10501689;28;20020;-63
2022/10/19 21:09:25;;;;;;;3.33;1.85;;;13.30;97.70;;;;;;10527561;28;20489;-64
2022/10/19 21:14:27;;;;;;;2.58;1.90;;;13.20;97.60;;;;;;10521799;28;20029;-63
2022/10/19 21:19:29;;;;;;;4.10;1.73;;;13.20;97.60;;;;;;10527496;28;20042;-63
2022/10/19 21:24:33;;;;;;;5.88;1.85;;;13.20;97.70;;;;;;10471052;22;20053;-64
2022/10/19 21:29:35;;;;;;;3.55;1.92;;;13.20;97.70;;;;;;10409348;28;20034;-66
2022/10/19 21:34:36;;;;;;;4.43;2.10;;;13.20;97.70;;;;;;10403411;28;20420;-65
2022/10/19 21:39:38;;;;;;;4.18;2.03;;;13.20;97.70;;;;;;10404230;28;20025;-64
2022/10/19 21:44:39;;;;;;;4.80;2.00;;;13.20;97.70;;;;;;10402329;28;20034;-65
2022/10/19 21:49:39;;;;;;;3.47;1.60;;;13.20;97.80;;;;;;10407249;28;20021;-64
2022/10/19 21:54:40;;;;;;;4.30;1.67;;;13.20;97.80;;;;;;10406114;28;20049;-65
2022/10/19 21:59:41;;;;;;;5.90;2.00;;;13.20;97.80;;;;;;10413404;28;20022;-64
2022/10/19 22:04:41;;;;;;;4.80;1.70;;;13.10;97.80;;;;;;10400483;28;20021;-65
2022/10/19 22:09:42;;;;;;;4.10;1.85;;;13.10;97.80;;;;;;10415626;28;20056;-64
2022/10/19 22:14:44;;;;;;;4.22;2.20;;;13.10;97.90;;;;;;10414372;28;20045;-66
2022/10/19 22:19:44;;;;;;;3.58;2.20;;;13.10;97.90;;;;;;10416291;28;20030;-65
2022/10/19 22:24:45;;;;;;;2.45;1.80;;;13.10;97.90;;;;;;10421335;28;20118;-65
2022/10/19 22:29:46;;;;;;;2.63;1.98;;;13.10;97.90;;;;;;10399736;28;20029;-65
2022/10/19 22:34:47;;;;;;;6.43;2.17;;;13.10;97.90;;;;;;10421121;28;20037;-65
2022/10/19 22:39:47;;;;;;;4.10;1.80;;;13.10;98.00;;;;;;10404364;28;20056;-66
2022/10/19 22:44:48;;;;;;;6.18;2.50;;;13.10;98.00;;;;;;10407268;28;20102;-65
2022/10/19 22:49:49;;;;;;;5.07;1.95;;;13.00;98.00;;;;;;10404946;28;20022;-65
2022/10/19 22:54:50;;;;;;;4.70;2.20;;;13.00;98.10;;;;;;10400035;28;20033;-65
2022/10/19 22:59:50;;;;;;;2.58;1.83;;;13.00;98.00;;;;;;10417289;28;20074;-64
2022/10/19 23:04:51;;;;;;;7.00;2.60;;;13.00;98.00;;;;;;10399857;28;20034;-65
2022/10/19 23:09:52;;;;;;;7.20;3.20;;;13.00;98.00;;;;;;10421467;28;20021;-65
2022/10/19 23:14:53;;;;;;;3.90;2.17;;;13.00;98.00;;;;;;10421762;28;20481;-64
2022/10/19 23:19:53;;;;;;;5.72;2.70;;;13.00;98.10;;;;;;10413927;28;20491;-65
2022/10/19 23:24:54;;;;;;;4.68;2.38;;;13.00;98.10;;;;;;10398049;28;20068;-64
2022/10/19 23:29:56;;;;;;;4.35;2.40;;;13.00;98.10;;;;;;10419462;28;20029;-65
2022/10/19 23:34:56;;;;;;;3.72;2.17;;;13.00;98.10;;;;;;10421436;28;20174;-65
2022/10/19 23:39:57;;;;;;;7.15;2.33;;;12.90;98.10;;;;;;10405182;28;20074;-64
2022/10/19 23:44:58;;;;;;;7.10;3.42;;;12.90;98.10;;;;;;10414666;28;20393;-65
2022/10/19 23:49:58;;;;;;;7.13;2.70;;;12.90;98.10;;;;;;10401855;28;20048;-64
2022/10/19 23:54:59;;;;;;;5.18;2.53;;;12.90;98.00;;;;;;10415490;28;20055;-64
